Time;durP1;ratioP1;P1;durP2;ratioP2;P2;SDS_P1;SDS_P2;PMS_P1;PMS_P2;Temp;Humidity;BMP_temperature;BMP_pressure;BME280_temperature;BME280_humidity;BME280_pressure;Samples;Min_cycle;Max_cycle;Signal;HPM_P1;HPM_P2
2022/03/10 00:00:15;;;;;;;1.35;1.00;;;2.40;94.70;;;;;;6285615;22;20000;-76
2022/03/10 00:02:45;;;;;;;8.38;2.08;;;2.20;95.30;;;;;;6285206;22;20043;-79
2022/03/10 00:05:15;;;;;;;1.27;1.17;;;2.20;95.60;;;;;;6285512;22;20099;-77
2022/03/10 00:07:42;;;;;;;0.55;0.38;;;2.00;96.10;;;;;;6285216;22;20006;-79
2022/03/10 00:10:09;;;;;;;0.43;0.43;;;2.10;96.40;;;;;;6275456;22;20337;-77
2022/03/10 00:12:35;;;;;;;1.42;1.38;;;2.30;96.30;;;;;;6274482;22;20010;-76
2022/03/10 00:15:08;;;;;;;0.20;0.20;;;2.30;96.30;;;;;;6285209;22;20015;-79
2022/03/10 00:17:34;;;;;;;0.38;0.38;;;2.30;96.40;;;;;;6283612;22;20008;-78
2022/03/10 00:20:00;;;;;;;0.20;0.20;;;2.50;96.30;;;;;;6285337;22;20043;-77
2022/03/10 00:22:25;;;;;;;1.48;1.35;;;2.50;96.20;;;;;;6285108;22;20007;-78
2022/03/10 00:24:51;;;;;;;0.40;0.40;;;2.60;96.20;;;;;;6285231;22;20069;-78
2022/03/10 00:27:17;;;;;;;3.20;2.35;;;2.60;96.10;;;;;;6284952;22;20585;-78
2022/03/10 00:29:42;;;;;;;1.60;1.20;;;2.50;95.90;;;;;;6285050;22;20090;-79
2022/03/10 00:32:09;;;;;;;0.10;0.10;;;2.30;96.20;;;;;;6275119;22;20004;-78
2022/03/10 00:34:35;;;;;;;0.45;0.45;;;2.00;96.80;;;;;;6285080;22;20034;-77
2022/03/10 00:37:02;;;;;;;0.25;0.25;;;2.00;96.70;;;;;;6284975;22;20004;-78
2022/03/10 00:39:27;;;;;;;1.33;1.23;;;2.10;96.50;;;;;;6284994;22;20020;-75
2022/03/10 00:41:53;;;;;;;0.30;0.30;;;2.10;96.70;;;;;;6285217;22;20082;-76
2022/03/10 00:44:19;;;;;;;0.82;0.82;;;2.10;96.90;;;;;;6285126;22;20074;-77
2022/03/10 00:46:44;;;;;;;0.88;0.82;;;1.90;97.60;;;;;;6285017;22;20007;-77
2022/03/10 00:49:10;;;;;;;1.38;1.27;;;1.70;97.50;;;;;;6275038;22;20004;-77
2022/03/10 00:51:37;;;;;;;0.10;0.10;;;1.50;98.20;;;;;;6284823;22;20019;-77
2022/03/10 00:54:03;;;;;;;6.00;1.85;;;1.40;98.50;;;;;;6285110;22;20326;-77
2022/03/10 00:56:29;;;;;;;1.15;1.15;;;1.30;99.10;;;;;;6283445;22;20010;-77
2022/03/10 00:58:54;;;;;;;3.92;1.15;;;1.40;98.80;;;;;;6284763;22;20067;-77
2022/03/10 01:01:20;;;;;;;0.65;0.65;;;1.50;98.80;;;;;;6285108;22;20004;-78
2022/03/10 01:03:46;;;;;;;5.00;2.22;;;1.60;98.70;;;;;;6283163;22;20012;-77
2022/03/10 01:06:11;;;;;;;1.80;1.70;;;1.70;98.40;;;;;;6285146;22;20000;-77
2022/03/10 01:08:37;;;;;;;0.98;0.98;;;1.80;98.20;;;;;;6284744;22;20020;-77
2022/03/10 01:11:03;;;;;;;0.32;0.32;;;1.70;98.30;;;;;;6284954;22;20310;-77
2022/03/10 01:13:29;;;;;;;0.45;0.45;;;1.60;98.60;;;;;;6284929;22;20008;-77
2022/03/10 01:15:54;;;;;;;1.85;1.35;;;1.40;99.00;;;;;;6285080;22;20004;-77
2022/03/10 01:18:20;;;;;;;0.25;0.25;;;1.30;99.50;;;;;;6274966;22;20012;-77
2022/03/10 01:20:49;;;;;;;0.80;0.75;;;1.00;99.90;;;;;;6284929;22;20014;-76
2022/03/10 01:23:14;;;;;;;0.75;0.75;;;0.90;99.90;;;;;;6274869;22;20083;-77
2022/03/10 01:25:40;;;;;;;0.55;0.55;;;0.80;99.90;;;;;;6285550;22;20032;-77
2022/03/10 01:28:06;;;;;;;0.20;0.20;;;0.80;99.90;;;;;;6287002;22;20034;-77
2022/03/10 01:30:32;;;;;;;0.40;0.40;;;0.80;99.90;;;;;;6277062;22;20014;-77
2022/03/10 01:32:58;;;;;;;0.30;0.30;;;0.70;99.90;;;;;;6286811;22;20007;-76
2022/03/10 01:35:23;;;;;;;0.98;0.98;;;0.90;99.90;;;;;;6286684;22;20007;-77
2022/03/10 01:37:49;;;;;;;3.80;2.35;;;0.80;99.90;;;;;;6276772;22;20413;-78
2022/03/10 01:40:18;;;;;;;4.03;2.72;;;0.80;99.90;;;;;;6287067;22;20007;-77
2022/03/10 01:42:47;;;;;;;0.20;0.20;;;0.80;99.90;;;;;;6287014;22;20412;-77
2022/03/10 01:45:14;;;;;;;0.52;0.52;;;0.80;99.90;;;;;;6287319;22;20015;-78
2022/03/10 01:47:41;;;;;;;4.85;2.75;;;0.80;99.90;;;;;;6287140;22;20010;-78
2022/03/10 01:50:09;;;;;;;1.13;1.05;;;0.80;99.90;;;;;;6283234;22;20062;-77
2022/03/10 01:52:35;;;;;;;0.85;0.85;;;0.70;99.90;;;;;;6286749;22;20337;-77
2022/03/10 01:55:02;;;;;;;1.50;1.40;;;0.70;99.90;;;;;;6276974;22;20067;-78
2022/03/10 01:57:28;;;;;;;34.55;3.30;;;0.60;99.90;;;;;;6285017;22;20012;-78
2022/03/10 01:59:54;;;;;;;0.52;0.52;;;0.60;99.90;;;;;;6286732;22;20007;-78
2022/03/10 02:02:20;;;;;;;2.15;1.95;;;0.60;99.90;;;;;;6284991;22;20015;-79
2022/03/10 02:04:45;;;;;;;12.75;4.63;;;0.60;99.90;;;;;;6276490;22;20008;-79
2022/03/10 02:10:16;;;;;;;0.30;0.30;;;0.60;99.90;;;;;;6276680;22;20000;-79
2022/03/10 02:10:17;;;;;;;0.63;0.63;;;0.70;99.90;;;;;;6276094;22;20791;-78
2022/03/10 02:12:54;;;;;;;0.40;0.40;;;0.60;99.90;;;;;;6286496;22;20014;-79
2022/03/10 02:18:11;;;;;;;0.43;0.43;;;0.80;99.90;;;;;;6286500;22;20008;-78
2022/03/10 02:20:38;;;;;;;0.63;0.47;;;0.80;99.90;;;;;;6286409;22;20137;-78
2022/03/10 02:23:06;;;;;;;0.10;0.10;;;0.90;99.90;;;;;;6276157;22;20086;-77
2022/03/10 02:25:35;;;;;;;10.75;3.72;;;0.80;99.90;;;;;;6284729;22;20006;-78
2022/03/10 02:28:01;;;;;;;0.95;0.95;;;0.80;99.90;;;;;;6286456;22;20011;-77
2022/03/10 02:30:29;;;;;;;0.35;0.35;;;0.70;99.90;;;;;;6284825;22;20549;-77
2022/03/10 02:32:55;;;;;;;1.00;1.00;;;0.60;99.90;;;;;;6286387;22;20047;-77
2022/03/10 02:35:21;;;;;;;0.65;0.65;;;0.60;99.90;;;;;;6285476;22;20016;-77
2022/03/10 02:37:47;;;;;;;0.10;0.10;;;0.50;99.90;;;;;;6285905;22;20015;-78
2022/03/10 02:40:13;;;;;;;0.57;0.57;;;0.50;99.90;;;;;;6275995;22;20015;-77
2022/03/10 02:42:40;;;;;;;0.45;0.45;;;0.50;99.90;;;;;;6274620;22;20004;-78
2022/03/10 02:45:07;;;;;;;1.40;0.95;;;0.40;99.90;;;;;;6276274;22;20091;-77
2022/03/10 02:47:34;;;;;;;1.15;1.15;;;0.40;99.90;;;;;;6285906;22;20500;-78
2022/03/10 02:50:00;;;;;;;1.58;1.00;;;0.40;99.90;;;;;;6276091;22;20019;-78
2022/03/10 02:52:25;;;;;;;1.67;1.58;;;0.40;99.90;;;;;;6275586;22;20336;-77
2022/03/10 02:54:51;;;;;;;0.93;0.93;;;0.50;99.90;;;;;;6286083;22;20008;-78
2022/03/10 02:57:17;;;;;;;4.03;1.30;;;0.50;99.90;;;;;;6276027;22;20016;-78
2022/03/10 02:59:43;;;;;;;13.82;2.47;;;0.50;99.90;;;;;;6275455;22;20332;-77
2022/03/10 03:02:09;;;;;;;1.02;1.00;;;0.50;99.90;;;;;;6285920;22;20008;-78
2022/03/10 03:04:35;;;;;;;0.25;0.25;;;0.50;99.90;;;;;;6285889;22;20515;-78
2022/03/10 03:07:01;;;;;;;0.43;0.43;;;0.60;99.90;;;;;;6286131;22;20004;-78
2022/03/10 03:09:27;;;;;;;0.98;0.98;;;0.50;99.90;;;;;;6284313;22;20311;-78
2022/03/10 03:11:52;;;;;;;0.20;0.20;;;0.50;99.90;;;;;;6284203;22;20038;-78
2022/03/10 03:14:22;;;;;;;4.25;2.30;;;0.60;99.90;;;;;;6275942;22;20375;-78
2022/03/10 03:16:50;;;;;;;6.63;3.70;;;0.60;99.90;;;;;;6285833;22;20012;-77
2022/03/10 03:19:15;;;;;;;1.17;1.13;;;0.60;99.90;;;;;;6285737;22;20004;-78
2022/03/10 03:21:41;;;;;;;2.45;1.02;;;0.60;99.90;;;;;;6285812;22;20000;-76
2022/03/10 03:24:07;;;;;;;1.15;1.00;;;0.60;99.90;;;;;;6275660;22;20050;-77
2022/03/10 03:26:32;;;;;;;1.85;1.75;;;0.60;99.90;;;;;;6275470;22;20004;-78
2022/03/10 03:28:58;;;;;;;0.10;0.10;;;0.60;99.90;;;;;;6285802;22;20008;-77
2022/03/10 03:31:24;;;;;;;0.10;0.10;;;0.60;99.90;;;;;;6275620;22;20036;-78
2022/03/10 03:33:50;;;;;;;0.82;0.82;;;0.60;99.90;;;;;;6285653;22;20020;-78
2022/03/10 03:36:16;;;;;;;0.63;0.63;;;0.60;99.90;;;;;;6275644;22;20004;-78
2022/03/10 03:38:41;;;;;;;0.40;0.38;;;0.50;99.90;;;;;;6285285;22;20018;-77
2022/03/10 03:41:07;;;;;;;0.93;0.93;;;0.50;99.90;;;;;;6285610;22;20014;-78
2022/03/10 03:43:33;;;;;;;1.02;1.00;;;0.40;99.90;;;;;;6285538;22;20011;-78
2022/03/10 03:45:58;;;;;;;1.92;1.52;;;0.40;99.90;;;;;;6275684;22;20008;-78
2022/03/10 03:48:25;;;;;;;11.60;2.60;;;0.40;99.90;;;;;;6285654;22;20447;-78
2022/03/10 03:50:51;;;;;;;3.50;3.22;;;0.40;99.90;;;;;;6285254;22;20088;-76
2022/03/10 03:53:18;;;;;;;6.85;2.15;;;0.40;99.90;;;;;;6285470;22;20030;-77
2022/03/10 03:55:44;;;;;;;0.15;0.15;;;0.30;99.90;;;;;;6285516;22;20010;-76
2022/03/10 03:58:11;;;;;;;16.17;3.30;;;0.30;99.90;;;;;;6285479;22;20020;-76
2022/03/10 04:00:36;;;;;;;1.15;1.08;;;0.30;99.90;;;;;;6285270;22;20042;-78
2022/03/10 04:03:08;;;;;;;45.42;2.83;;;0.30;99.90;;;;;;6275547;22;20016;-78
2022/03/10 04:05:37;;;;;;;1.10;1.10;;;0.20;99.90;;;;;;6275214;22;20011;-78
2022/03/10 04:08:05;;;;;;;0.47;0.47;;;0.30;99.90;;;;;;6285570;22;20011;-78
2022/03/10 04:10:31;;;;;;;2.30;1.48;;;0.20;99.90;;;;;;6275316;22;20028;-77
2022/03/10 04:12:58;;;;;;;0.90;0.90;;;0.20;99.90;;;;;;6285446;22;20011;-77
2022/03/10 04:15:24;;;;;;;0.75;0.75;;;0.30;99.90;;;;;;6285406;22;20019;-77
2022/03/10 04:17:50;;;;;;;0.45;0.45;;;0.20;99.90;;;;;;6285061;22;20336;-78
2022/03/10 04:20:15;;;;;;;6.95;4.90;;;0.30;99.90;;;;;;6285360;22;20007;-77
2022/03/10 04:22:41;;;;;;;0.20;0.20;;;0.20;99.90;;;;;;6248208;22;20000;-77
2022/03/10 04:25:08;;;;;;;2.92;1.27;;;0.20;99.90;;;;;;6273809;22;20011;-78
2022/03/10 04:27:35;;;;;;;0.65;0.65;;;0.10;99.90;;;;;;6285100;22;20026;-77
2022/03/10 04:30:03;;;;;;;1.13;1.13;;;0.10;99.90;;;;;;6285328;22;20010;-78
2022/03/10 04:32:29;;;;;;;0.50;0.50;;;0.10;99.90;;;;;;6275354;22;20071;-77
2022/03/10 04:34:54;;;;;;;1.80;1.70;;;0.10;99.90;;;;;;6285555;22;20353;-76
2022/03/10 04:37:20;;;;;;;0.10;0.10;;;0.10;99.90;;;;;;6285239;22;20014;-78
2022/03/10 04:39:46;;;;;;;1.10;1.10;;;0.20;99.90;;;;;;6285135;22;20010;-76
2022/03/10 04:42:11;;;;;;;5.47;3.80;;;0.10;99.90;;;;;;6285067;22;20070;-79
2022/03/10 04:44:37;;;;;;;12.18;3.38;;;0.10;99.90;;;;;;6275149;22;20015;-77
2022/03/10 04:47:03;;;;;;;0.70;0.70;;;0.00;99.90;;;;;;6285017;22;20042;-78
2022/03/10 04:49:29;;;;;;;0.85;0.85;;;0.10;99.90;;;;;;6284973;22;20078;-77
2022/03/10 04:51:54;;;;;;;1.45;1.35;;;-0.20;99.90;;;;;;6284898;22;20408;-77
2022/03/10 04:54:22;;;;;;;0.43;0.43;;;-0.10;99.90;;;;;;6283629;22;20007;-76
2022/03/10 04:56:48;;;;;;;2.13;1.70;;;0.00;99.90;;;;;;6284909;22;20015;-77
2022/03/10 04:59:14;;;;;;;1.38;1.27;;;-0.10;99.90;;;;;;6284771;22;20011;-78
2022/03/10 05:01:39;;;;;;;1.15;0.73;;;-0.10;99.90;;;;;;6283900;22;20137;-74
2022/03/10 05:04:05;;;;;;;0.20;0.20;;;0.00;99.90;;;;;;6284900;22;20008;-74
2022/03/10 05:06:30;;;;;;;0.47;0.47;;;0.00;99.90;;;;;;6284756;22;20398;-74
2022/03/10 05:08:56;;;;;;;0.30;0.30;;;0.10;99.90;;;;;;6274424;22;20014;-76
2022/03/10 05:11:22;;;;;;;9.23;2.75;;;0.20;99.90;;;;;;6314277;22;20371;-75
2022/03/10 05:13:48;;;;;;;2.33;1.85;;;0.20;99.90;;;;;;6315740;22;20003;-74
2022/03/10 05:16:14;;;;;;;0.20;0.20;;;0.30;99.90;;;;;;6316012;22;20011;-74
2022/03/10 05:18:39;;;;;;;0.00;0.00;;;0.30;99.90;;;;;;6315769;22;20011;-68
2022/03/10 05:21:05;;;;;;;6.72;4.45;;;0.30;99.90;;;;;;6315591;22;20325;-73
2022/03/10 05:23:31;;;;;;;0.15;0.15;;;0.30;99.90;;;;;;6315397;22;20096;-74
2022/03/10 05:25:57;;;;;;;0.20;0.20;;;0.30;99.90;;;;;;6305610;22;20355;-73
2022/03/10 05:28:22;;;;;;;0.30;0.30;;;0.60;99.90;;;;;;6304188;22;20007;-69
2022/03/10 05:30:48;;;;;;;0.25;0.25;;;0.70;99.90;;;;;;6305403;22;20026;-72
2022/03/10 05:33:14;;;;;;;0.57;0.57;;;0.60;99.90;;;;;;6315592;22;20015;-69
2022/03/10 05:35:40;;;;;;;0.28;0.28;;;0.50;99.90;;;;;;6305186;22;20451;-74
2022/03/10 05:38:06;;;;;;;1.05;1.05;;;0.50;99.90;;;;;;6315157;22;20003;-73
2022/03/10 05:40:32;;;;;;;0.47;0.47;;;0.40;99.90;;;;;;6305018;22;20011;-74
2022/03/10 05:42:58;;;;;;;0.85;0.80;;;0.50;99.90;;;;;;6314044;22;20000;-70
2022/03/10 05:45:25;;;;;;;1.38;1.33;;;0.50;99.90;;;;;;6315519;22;20061;-73
2022/03/10 05:47:54;;;;;;;0.85;0.85;;;0.50;99.90;;;;;;6314607;22;20007;-75
2022/03/10 05:50:20;;;;;;;0.17;0.17;;;0.60;99.90;;;;;;6314910;22;20018;-73
2022/03/10 05:52:46;;;;;;;1.48;1.38;;;0.60;99.90;;;;;;6313320;22;20348;-72
2022/03/10 05:55:14;;;;;;;0.20;0.20;;;0.70;99.90;;;;;;6314790;22;20014;-71
2022/03/10 05:57:40;;;;;;;0.20;0.20;;;0.60;99.90;;;;;;6303727;22;20371;-71
2022/03/10 06:00:09;;;;;;;0.20;0.20;;;0.60;99.90;;;;;;6305532;22;20022;-71
2022/03/10 06:02:35;;;;;;;0.50;0.50;;;0.60;99.90;;;;;;6315362;22;20094;-70
2022/03/10 06:05:01;;;;;;;4.63;4.10;;;0.50;99.90;;;;;;6313879;22;20007;-70
2022/03/10 06:07:27;;;;;;;2.90;1.75;;;0.60;99.90;;;;;;6305514;22;20003;-70
2022/03/10 06:09:55;;;;;;;0.35;0.35;;;0.60;99.90;;;;;;6315273;22;20049;-71
2022/03/10 06:12:27;;;;;;;0.80;0.80;;;0.60;99.90;;;;;;6307224;22;20007;-71
2022/03/10 06:14:56;;;;;;;2.03;1.92;;;0.60;99.90;;;;;;6306918;22;20510;-70
2022/03/10 06:17:23;;;;;;;0.52;0.52;;;0.60;99.90;;;;;;6317225;22;20039;-70
2022/03/10 06:19:49;;;;;;;3.30;3.00;;;0.60;99.90;;;;;;6317203;22;20007;-70
2022/03/10 06:22:24;;;;;;;1.25;1.23;;;0.60;99.90;;;;;;6306999;22;20015;-69
2022/03/10 06:24:50;;;;;;;2.50;2.17;;;0.60;99.90;;;;;;6317025;22;20007;-70
2022/03/10 06:27:19;;;;;;;0.20;0.20;;;0.60;99.90;;;;;;6306929;22;20064;-70
2022/03/10 06:29:45;;;;;;;3.05;1.60;;;0.60;99.90;;;;;;6306784;22;20003;-70
2022/03/10 06:32:12;;;;;;;3.85;3.53;;;0.50;99.90;;;;;;6306873;22;20061;-69
2022/03/10 06:34:38;;;;;;;0.55;0.55;;;0.60;99.90;;;;;;6316952;22;20007;-70
2022/03/10 06:37:08;;;;;;;0.60;0.60;;;0.60;99.90;;;;;;6306590;22;20092;-70
2022/03/10 06:39:34;;;;;;;1.05;1.05;;;0.60;99.90;;;;;;6316653;22;20007;-70
2022/03/10 06:42:02;;;;;;;0.45;0.45;;;0.60;99.90;;;;;;6317089;22;20061;-70
2022/03/10 06:44:29;;;;;;;1.23;1.15;;;0.60;99.90;;;;;;6307139;22;20096;-70
2022/03/10 06:46:55;;;;;;;0.75;0.75;;;0.60;99.90;;;;;;6316927;22;20010;-71
2022/03/10 06:49:21;;;;;;;10.75;2.88;;;0.60;99.90;;;;;;6317002;22;20015;-70
2022/03/10 06:51:48;;;;;;;4.85;3.33;;;0.60;99.90;;;;;;6332181;22;20384;-65
2022/03/10 06:54:16;;;;;;;0.98;0.68;;;0.70;99.90;;;;;;6337861;22;20046;-73
2022/03/10 06:56:42;;;;;;;0.17;0.17;;;0.70;99.90;;;;;;6347475;22;20442;-67
2022/03/10 06:59:08;;;;;;;0.50;0.50;;;0.80;99.90;;;;;;6348036;22;20011;-67
2022/03/10 07:01:34;;;;;;;1.77;1.67;;;0.80;99.90;;;;;;6348049;22;20446;-67
2022/03/10 07:04:00;;;;;;;2.70;2.13;;;0.90;99.90;;;;;;6337533;22;20720;-68
2022/03/10 07:06:26;;;;;;;35.65;4.40;;;0.90;99.90;;;;;;6337677;22;20007;-68
2022/03/10 07:08:52;;;;;;;1.48;1.38;;;0.90;99.90;;;;;;6347736;22;20033;-67
2022/03/10 07:11:19;;;;;;;0.30;0.30;;;1.00;99.90;;;;;;6310288;22;20003;-67
2022/03/10 07:13:46;;;;;;;3.25;2.95;;;1.00;99.90;;;;;;6310142;22;20011;-68
2022/03/10 07:16:12;;;;;;;0.10;0.10;;;1.10;99.90;;;;;;6348053;22;20446;-67
2022/03/10 07:18:38;;;;;;;0.10;0.10;;;1.20;99.90;;;;;;6347654;22;20017;-67
2022/03/10 07:21:04;;;;;;;0.28;0.28;;;1.20;99.90;;;;;;6347673;22;20035;-67
2022/03/10 07:23:33;;;;;;;0.10;0.10;;;1.20;99.90;;;;;;6337513;22;20014;-68
2022/03/10 07:25:59;;;;;;;0.10;0.10;;;1.30;99.90;;;;;;6347874;22;20002;-68
2022/03/10 07:28:25;;;;;;;0.68;0.68;;;1.30;99.90;;;;;;6337649;22;20056;-67
2022/03/10 07:30:51;;;;;;;1.15;1.05;;;1.40;99.90;;;;;;6336817;22;20041;-68
2022/03/10 07:33:17;;;;;;;0.20;0.20;;;1.50;99.90;;;;;;6347715;22;20010;-68
2022/03/10 07:35:44;;;;;;;0.47;0.47;;;1.60;99.90;;;;;;6337351;22;20006;-68
2022/03/10 07:38:11;;;;;;;0.20;0.20;;;1.70;99.90;;;;;;6337419;22;20017;-70
2022/03/10 07:40:37;;;;;;;0.55;0.55;;;1.80;99.90;;;;;;6337330;22;20015;-69
2022/03/10 07:43:05;;;;;;;1.33;1.23;;;1.80;99.90;;;;;;6347410;22;19995;-69
2022/03/10 07:45:32;;;;;;;2.38;1.80;;;1.90;99.90;;;;;;6337625;22;20018;-70
2022/03/10 07:47:58;;;;;;;2.05;1.95;;;2.00;99.90;;;;;;6347434;22;20412;-69
2022/03/10 07:50:23;;;;;;;0.82;0.82;;;2.10;99.90;;;;;;6337431;22;20026;-69
2022/03/10 07:52:50;;;;;;;1.27;1.25;;;2.20;99.90;;;;;;6336908;22;20019;-69
2022/03/10 07:55:16;;;;;;;1.23;0.85;;;2.30;99.90;;;;;;6337638;22;20014;-68
2022/03/10 07:57:41;;;;;;;1.85;1.67;;;2.50;99.90;;;;;;6347445;22;20006;-70
2022/03/10 08:00:09;;;;;;;0.10;0.10;;;2.60;99.90;;;;;;6347440;22;20478;-70
2022/03/10 08:02:36;;;;;;;0.38;0.38;;;2.70;99.90;;;;;;6337494;22;20014;-73
2022/03/10 08:05:03;;;;;;;5.70;2.65;;;2.80;99.90;;;;;;6309921;22;20063;-71
2022/03/10 08:07:32;;;;;;;0.52;0.52;;;2.80;99.90;;;;;;6337507;22;20013;-80
2022/03/10 08:10:00;;;;;;;1.92;1.83;;;2.90;99.90;;;;;;6347085;22;20025;-69
2022/03/10 08:12:30;;;;;;;1.52;1.42;;;3.00;99.90;;;;;;6346749;22;20007;-69
2022/03/10 08:14:56;;;;;;;2.38;2.05;;;3.10;99.90;;;;;;6336739;22;20006;-68
2022/03/10 08:17:22;;;;;;;1.35;1.25;;;3.20;99.90;;;;;;6319703;22;20372;-68
2022/03/10 08:19:48;;;;;;;0.10;0.10;;;3.20;99.90;;;;;;6337055;22;20072;-68
2022/03/10 08:22:17;;;;;;;1.48;1.38;;;3.40;99.90;;;;;;6337229;22;20396;-68
2022/03/10 08:24:44;;;;;;;0.10;0.10;;;3.50;99.90;;;;;;6346716;22;20045;-68
2022/03/10 08:27:11;;;;;;;4.10;1.58;;;3.60;99.90;;;;;;6337300;22;20034;-68
2022/03/10 08:29:38;;;;;;;4.25;1.45;;;3.80;99.90;;;;;;6347187;22;20014;-69
2022/03/10 08:32:04;;;;;;;0.75;0.75;;;3.90;99.90;;;;;;6336876;22;20460;-72
2022/03/10 08:34:30;;;;;;;0.20;0.20;;;4.00;99.90;;;;;;6309202;22;20075;-66
2022/03/10 08:36:57;;;;;;;1.73;1.63;;;4.10;99.90;;;;;;6346953;22;20407;-67
2022/03/10 08:39:22;;;;;;;1.10;1.10;;;4.30;99.20;;;;;;6336984;22;20056;-67
2022/03/10 08:41:49;;;;;;;0.40;0.40;;;4.40;98.90;;;;;;6347086;22;19998;-67
2022/03/10 08:44:16;;;;;;;0.95;0.93;;;4.60;98.70;;;;;;6347073;22;20018;-67
2022/03/10 08:46:42;;;;;;;0.63;0.63;;;4.70;98.10;;;;;;6347193;22;20332;-67
2022/03/10 08:49:08;;;;;;;0.93;0.88;;;4.90;97.50;;;;;;6346968;22;20043;-67
2022/03/10 08:51:34;;;;;;;0.40;0.40;;;5.00;97.30;;;;;;6346782;22;20030;-67
2022/03/10 08:54:00;;;;;;;0.10;0.10;;;5.10;97.10;;;;;;6337005;22;20313;-67
2022/03/10 08:56:25;;;;;;;0.10;0.10;;;5.30;96.70;;;;;;6337055;22;20083;-68
2022/03/10 08:58:51;;;;;;;1.35;1.25;;;5.50;96.40;;;;;;6308822;22;20087;-68
2022/03/10 09:01:17;;;;;;;0.43;0.43;;;5.60;96.40;;;;;;6337040;22;20297;-67
2022/03/10 09:03:43;;;;;;;0.10;0.10;;;5.80;95.80;;;;;;6346611;22;20009;-68
2022/03/10 09:06:12;;;;;;;1.13;1.02;;;6.00;95.60;;;;;;6347019;22;20576;-68
2022/03/10 09:08:38;;;;;;;1.50;1.02;;;6.00;95.10;;;;;;6310004;22;20007;-68
2022/03/10 09:11:04;;;;;;;0.30;0.30;;;6.30;94.50;;;;;;6346655;22;20037;-68
2022/03/10 09:13:30;;;;;;;2.92;0.77;;;6.60;94.40;;;;;;6346923;22;20369;-68
2022/03/10 09:15:56;;;;;;;1.08;1.05;;;6.70;94.30;;;;;;6336732;22;20027;-68
2022/03/10 09:18:22;;;;;;;0.93;0.85;;;6.70;94.10;;;;;;6347096;22;20007;-68
2022/03/10 09:20:48;;;;;;;3.72;2.40;;;7.00;92.40;;;;;;6346697;22;20089;-67
2022/03/10 09:23:13;;;;;;;10.13;3.92;;;7.10;92.70;;;;;;6319473;22;20034;-68
2022/03/10 09:25:39;;;;;;;0.30;0.30;;;7.30;92.70;;;;;;6336777;22;20060;-68
2022/03/10 09:28:05;;;;;;;0.30;0.30;;;7.50;91.50;;;;;;6336860;22;20055;-68
2022/03/10 09:30:31;;;;;;;1.02;1.02;;;7.60;91.40;;;;;;6346971;22;20019;-68
2022/03/10 09:32:57;;;;;;;0.30;0.30;;;7.80;90.90;;;;;;6336825;22;20003;-69
2022/03/10 09:35:24;;;;;;;2.90;0.88;;;8.00;90.30;;;;;;6319538;22;20010;-68
2022/03/10 09:37:49;;;;;;;1.38;1.33;;;8.30;90.30;;;;;;6346544;22;20007;-68
2022/03/10 09:40:15;;;;;;;0.20;0.20;;;8.70;90.00;;;;;;6336586;22;20053;-68
2022/03/10 09:42:45;;;;;;;0.70;0.70;;;8.80;89.90;;;;;;6336851;22;19999;-68
2022/03/10 09:45:11;;;;;;;1.92;1.83;;;8.90;90.40;;;;;;6309962;22;20007;-68
2022/03/10 09:47:39;;;;;;;3.35;2.58;;;9.10;88.80;;;;;;6338757;22;20405;-67
2022/03/10 09:50:12;;;;;;;20.83;2.33;;;9.30;87.60;;;;;;6348587;22;20055;-68
2022/03/10 09:52:39;;;;;;;1.85;1.75;;;9.40;87.20;;;;;;6338089;22;20019;-67
2022/03/10 09:55:06;;;;;;;0.52;0.52;;;9.60;86.00;;;;;;6348743;22;20456;-67
2022/03/10 09:57:37;;;;;;;0.30;0.30;;;10.10;87.80;;;;;;6348719;22;20038;-67
2022/03/10 10:00:04;;;;;;;;;;;10.20;84.60;;;;;;6349044;22;20095;-67
2022/03/10 10:02:29;;;;;;;2.65;2.45;;;10.20;83.80;;;;;;6338506;22;19985;-67
2022/03/10 10:04:56;;;;;;;1.90;1.80;;;10.30;82.60;;;;;;6348704;22;20041;-67
2022/03/10 10:07:28;;;;;;;0.40;0.40;;;10.40;82.90;;;;;;6338357;22;20067;-68
2022/03/10 10:09:57;;;;;;;0.68;0.68;;;10.60;81.80;;;;;;6311936;22;20061;-67
2022/03/10 10:12:29;;;;;;;0.63;0.63;;;10.90;82.60;;;;;;6348529;22;20033;-68
2022/03/10 10:14:57;;;;;;;1.75;1.65;;;11.10;81.50;;;;;;6348335;22;20021;-67
2022/03/10 10:17:31;;;;;;;1.88;1.13;;;11.30;79.70;;;;;;6348796;22;20074;-67
2022/03/10 10:20:00;;;;;;;0.93;0.93;;;11.30;79.60;;;;;;6348437;22;20343;-67
2022/03/10 10:22:28;;;;;;;1.05;1.02;;;11.50;78.20;;;;;;6310372;22;20010;-67
2022/03/10 10:24:59;;;;;;;0.93;0.88;;;11.60;77.60;;;;;;6320889;22;20081;-67
2022/03/10 10:27:27;;;;;;;1.10;1.05;;;11.70;76.00;;;;;;6338104;22;20007;-67
2022/03/10 10:30:00;;;;;;;0.40;0.40;;;12.00;76.00;;;;;;6348387;22;20072;-67
2022/03/10 10:32:55;;;;;;;0.50;0.50;;;12.30;75.70;;;;;;6322328;22;20086;-67
2022/03/10 10:35:21;;;;;;;0.47;0.47;;;12.30;74.30;;;;;;6337975;22;20005;-68
2022/03/10 10:37:56;;;;;;;0.35;0.35;;;12.90;72.10;;;;;;6348049;22;20432;-68
2022/03/10 10:40:27;;;;;;;0.43;0.43;;;13.10;71.10;;;;;;6311206;22;20014;-67
2022/03/10 10:42:55;;;;;;;0.85;0.77;;;13.30;70.80;;;;;;6338209;22;20049;-67
2022/03/10 10:45:32;;;;;;;0.28;0.28;;;13.50;70.00;;;;;;6338132;22;20329;-68
2022/03/10 10:48:09;;;;;;;1.10;0.95;;;13.80;70.10;;;;;;6310350;22;20014;-68
2022/03/10 10:50:38;;;;;;;0.45;0.45;;;13.80;68.10;;;;;;6338019;22;20018;-66
2022/03/10 10:53:06;;;;;;;0.98;0.93;;;13.60;68.50;;;;;;6338080;22;20078;-67
2022/03/10 10:55:38;;;;;;;0.75;0.17;;;13.80;67.50;;;;;;6347964;22;20378;-68
2022/03/10 10:58:10;;;;;;;11.48;2.88;;;14.00;68.30;;;;;;6347665;22;20309;-67
2022/03/10 11:00:47;;;;;;;0.05;0.05;;;14.00;67.10;;;;;;6348088;22;20017;-67
2022/03/10 11:03:31;;;;;;;0.85;0.65;;;14.50;67.80;;;;;;6348174;22;20030;-68
2022/03/10 11:05:58;;;;;;;1.58;1.38;;;14.80;66.20;;;;;;6337901;22;20003;-68
2022/03/10 11:08:26;;;;;;;1.60;1.50;;;14.70;65.30;;;;;;6337867;22;20007;-77
2022/03/10 11:10:52;;;;;;;0.82;0.77;;;14.70;65.00;;;;;;6320322;22;20475;-71
2022/03/10 11:13:19;;;;;;;0.65;0.52;;;14.80;63.10;;;;;;6338074;22;20007;-74
2022/03/10 11:15:46;;;;;;;1.10;1.00;;;14.90;63.60;;;;;;6310289;22;20010;-71
2022/03/10 11:18:14;;;;;;;1.30;0.65;;;15.10;62.50;;;;;;6337932;22;20007;-70
2022/03/10 11:20:47;;;;;;;0.13;0.13;;;15.10;62.50;;;;;;6348058;22;20010;-71
2022/03/10 11:23:34;;;;;;;0.28;0.28;;;15.30;61.70;;;;;;6321063;22;20002;-71
2022/03/10 11:26:29;;;;;;;0.63;0.63;;;15.50;61.60;;;;;;6337470;22;20014;-68
2022/03/10 11:28:56;;;;;;;0.30;0.28;;;16.00;60.20;;;;;;6312297;22;20011;-68
2022/03/10 11:31:23;;;;;;;0.20;0.20;;;16.20;57.70;;;;;;6347919;22;20376;-69
2022/03/10 11:33:49;;;;;;;0.20;0.20;;;15.80;56.30;;;;;;6320464;22;20003;-73
2022/03/10 11:36:32;;;;;;;0.00;0.00;;;16.20;56.20;;;;;;6305744;22;20064;-69
2022/03/10 11:39:02;;;;;;;0.10;0.08;;;16.10;55.00;;;;;;6336440;22;20017;-68
2022/03/10 11:41:46;;;;;;;0.00;0.00;;;16.00;55.50;;;;;;6347844;22;20080;-68
2022/03/10 11:44:13;;;;;;;1.73;1.20;;;16.10;56.10;;;;;;6347826;22;20338;-69
2022/03/10 11:46:57;;;;;;;0.22;0.22;;;16.40;55.80;;;;;;6337600;22;20415;-66
2022/03/10 11:49:27;;;;;;;0.45;0.45;;;16.40;55.60;;;;;;6347938;22;20038;-66
2022/03/10 11:51:59;;;;;;;0.00;0.00;;;16.50;55.00;;;;;;6337060;22;20007;-66
2022/03/10 11:54:31;;;;;;;0.00;0.00;;;16.50;54.30;;;;;;6347775;22;20042;-66
2022/03/10 11:57:06;;;;;;;0.63;0.40;;;17.00;54.20;;;;;;6347641;22;20018;-65
2022/03/10 11:59:35;;;;;;;1.00;0.60;;;17.00;53.60;;;;;;6337134;22;20018;-65
2022/03/10 12:02:02;;;;;;;0.00;0.00;;;16.70;53.00;;;;;;6347356;22;20007;-65
2022/03/10 12:04:40;;;;;;;0.10;0.10;;;16.90;52.90;;;;;;6337090;22;20012;-65
2022/03/10 12:07:14;;;;;;;0.32;0.32;;;17.20;52.50;;;;;;6309518;22;20007;-65
2022/03/10 12:09:41;;;;;;;0.50;0.50;;;17.20;52.10;;;;;;6336799;22;20033;-65
2022/03/10 12:12:24;;;;;;;1.70;0.40;;;17.00;51.80;;;;;;6336464;22;20007;-65
2022/03/10 12:14:55;;;;;;;0.15;0.15;;;17.20;51.90;;;;;;6337010;22;20014;-68
2022/03/10 12:17:44;;;;;;;;;;;17.40;51.70;;;;;;6321307;22;20003;-66
2022/03/10 12:20:17;;;;;;;0.20;0.20;;;17.40;51.50;;;;;;6337193;22;19910;-66
2022/03/10 12:23:15;;;;;;;0.10;0.10;;;17.60;52.00;;;;;;6346966;22;20034;-66
2022/03/10 12:26:07;;;;;;;0.25;0.25;;;18.00;50.50;;;;;;6347156;22;20007;-66
2022/03/10 12:28:39;;;;;;;0.45;0.10;;;18.10;50.40;;;;;;6337561;22;20328;-66
2022/03/10 12:31:18;;;;;;;3.72;2.42;;;18.40;50.10;;;;;;6336735;22;20021;-66
2022/03/10 12:33:50;;;;;;;0.25;0.25;;;18.10;49.30;;;;;;6337149;22;20009;-66
2022/03/10 12:36:35;;;;;;;1.00;0.68;;;18.20;50.40;;;;;;6336489;22;20336;-65
2022/03/10 12:39:17;;;;;;;0.00;0.00;;;18.00;49.50;;;;;;6336526;22;20082;-65
2022/03/10 12:41:52;;;;;;;1.05;0.75;;;18.20;50.40;;;;;;6347153;22;20010;-66
2022/03/10 12:44:22;;;;;;;0.00;0.00;;;18.70;49.00;;;;;;6337240;22;20094;-66
2022/03/10 12:46:51;;;;;;;0.65;0.65;;;18.80;49.00;;;;;;6347071;22;20014;-66
2022/03/10 12:49:45;;;;;;;0.00;0.00;;;18.50;49.10;;;;;;6308997;22;20003;-66
2022/03/10 12:52:17;;;;;;;0.77;0.77;;;18.50;48.80;;;;;;6336577;22;20025;-66
2022/03/10 12:54:45;;;;;;;0.55;0.52;;;18.10;48.10;;;;;;6309633;22;20006;-66
2022/03/10 12:57:11;;;;;;;0.10;0.10;;;17.90;48.60;;;;;;6336609;22;20018;-66
2022/03/10 12:59:41;;;;;;;0.00;0.00;;;18.10;48.50;;;;;;6336988;22;20014;-66
2022/03/10 13:02:18;;;;;;;0.00;0.00;;;18.00;48.30;;;;;;6346838;22;20011;-65